createdAt,value
2018-09-26T00:01:13.496Z,29.10
2018-09-26T00:03:45.729Z,29.10
2018-09-26T00:06:15.200Z,29.10
2018-09-26T00:08:44.636Z,29.10
2018-09-26T00:11:13.910Z,29.10
2018-09-26T00:13:43.233Z,29.10
2018-09-26T00:16:12.545Z,29.10
2018-09-26T00:18:41.825Z,29.10
2018-09-26T00:21:11.073Z,29.10
2018-09-26T00:23:40.284Z,29.10
2018-09-26T00:26:09.560Z,29.10
2018-09-26T00:28:38.864Z,29.10
2018-09-26T00:31:08.105Z,29.10
2018-09-26T00:33:37.341Z,29.00
2018-09-26T00:36:06.750Z,29.10
2018-09-26T00:38:35.972Z,29.10
2018-09-26T00:41:05.323Z,29.00
2018-09-26T00:43:34.548Z,29.10
2018-09-26T00:46:03.790Z,29.00
2018-09-26T00:48:34.988Z,29.00
2018-09-26T00:51:04.264Z,29.00
2018-09-26T00:53:33.588Z,29.00
2018-09-26T00:56:03.071Z,29.00
2018-09-26T00:58:32.320Z,29.00
2018-09-26T01:01:01.572Z,29.00
2018-09-26T01:03:30.834Z,29.00
2018-09-26T01:06:00.132Z,28.90
2018-09-26T01:08:29.380Z,28.90
2018-09-26T01:10:58.677Z,29.00
2018-09-26T01:13:27.920Z,28.90
2018-09-26T01:15:57.256Z,29.00
2018-09-26T01:18:26.517Z,29.00
2018-09-26T01:20:55.770Z,29.00
2018-09-26T01:23:25.045Z,29.00
2018-09-26T01:25:54.320Z,29.00
2018-09-26T01:28:23.591Z,29.00
2018-09-26T01:30:52.847Z,29.00
2018-09-26T01:33:22.181Z,29.00
2018-09-26T01:35:51.409Z,28.90
2018-09-26T01:38:20.654Z,29.00
2018-09-26T01:40:49.969Z,28.90
2018-09-26T01:43:19.337Z,28.90
2018-09-26T01:45:48.613Z,28.90
2018-09-26T01:48:17.907Z,28.90
2018-09-26T01:50:47.156Z,28.90
2018-09-26T01:53:16.470Z,28.90
2018-09-26T01:55:45.777Z,28.90
2018-09-26T01:58:15.022Z,28.90
2018-09-26T02:00:44.311Z,28.90
2018-09-26T02:03:13.589Z,28.90
2018-09-26T02:05:42.918Z,28.90
2018-09-26T02:08:12.156Z,28.90
2018-09-26T02:10:41.421Z,28.90
2018-09-26T02:13:10.686Z,28.90
2018-09-26T02:15:39.917Z,28.90
2018-09-26T02:18:09.232Z,28.80
2018-09-26T02:20:38.505Z,28.80
2018-09-26T02:23:07.748Z,28.80
2018-09-26T02:25:37.052Z,28.80
2018-09-26T02:28:06.281Z,28.80
2018-09-26T02:30:35.543Z,28.80
2018-09-26T02:33:04.870Z,28.80
2018-09-26T02:35:34.117Z,28.80
2018-09-26T02:38:03.387Z,28.80
2018-09-26T02:40:32.717Z,28.80
2018-09-26T02:43:02.011Z,28.80
2018-09-26T02:45:31.404Z,28.80
2018-09-26T02:48:00.677Z,28.80
2018-09-26T02:50:29.980Z,28.80
2018-09-26T02:52:59.271Z,28.70
2018-09-26T02:55:28.697Z,28.70
2018-09-26T02:57:57.957Z,28.70
2018-09-26T03:00:27.212Z,28.70
2018-09-26T03:02:56.475Z,28.70
2018-09-26T03:05:25.748Z,28.70
2018-09-26T03:07:55.018Z,28.70
2018-09-26T03:10:24.272Z,28.70
2018-09-26T03:12:53.488Z,28.70
2018-09-26T03:15:22.745Z,28.70
2018-09-26T03:17:52.025Z,28.70
2018-09-26T03:20:21.336Z,28.70
2018-09-26T03:22:50.562Z,28.70
2018-09-26T03:25:19.873Z,28.70
2018-09-26T03:27:49.224Z,28.70
2018-09-26T03:30:18.505Z,28.70
2018-09-26T03:32:47.763Z,28.70
2018-09-26T03:35:17.045Z,28.70
2018-09-26T03:37:46.316Z,28.70
2018-09-26T03:40:15.595Z,28.70
2018-09-26T03:42:44.871Z,28.70
2018-09-26T03:45:14.201Z,28.70
2018-09-26T03:47:43.528Z,28.70
2018-09-26T03:50:12.764Z,28.70
2018-09-26T03:52:42.308Z,28.60
2018-09-26T03:55:11.593Z,28.60
2018-09-26T03:57:40.876Z,28.60
2018-09-26T04:00:10.268Z,28.60
2018-09-26T04:02:39.561Z,28.60
2018-09-26T04:05:08.900Z,28.60
2018-09-26T04:07:38.189Z,28.60
2018-09-26T04:10:07.830Z,28.60
2018-09-26T04:12:37.150Z,28.60
2018-09-26T04:15:06.374Z,28.60
2018-09-26T04:17:35.663Z,28.60
2018-09-26T04:20:05.082Z,28.60
2018-09-26T04:22:34.280Z,28.60
2018-09-26T04:25:03.568Z,28.50
2018-09-26T04:27:32.837Z,28.60
2018-09-26T04:30:02.148Z,28.60
2018-09-26T04:32:31.511Z,28.50
2018-09-26T04:35:00.765Z,28.50
2018-09-26T04:37:30.033Z,28.60
2018-09-26T04:39:59.295Z,28.60
2018-09-26T04:42:28.580Z,28.60
2018-09-26T04:44:57.893Z,28.60
2018-09-26T04:47:27.148Z,28.60
2018-09-26T04:49:56.624Z,28.60
2018-09-26T04:52:25.857Z,28.60
2018-09-26T04:54:55.144Z,28.60
2018-09-26T04:57:24.413Z,28.60
2018-09-26T04:59:53.698Z,28.60
2018-09-26T05:02:22.956Z,28.60
2018-09-26T05:04:52.387Z,28.60
2018-09-26T05:07:21.759Z,28.60
2018-09-26T05:09:50.995Z,28.60
2018-09-26T05:12:20.315Z,28.60
2018-09-26T05:14:49.565Z,28.60
2018-09-26T05:17:18.860Z,28.60
2018-09-26T05:19:48.168Z,28.60
2018-09-26T05:22:17.423Z,28.60
2018-09-26T05:24:46.688Z,28.60
2018-09-26T05:27:15.988Z,28.60
2018-09-26T05:29:45.301Z,28.60
2018-09-26T05:32:14.637Z,28.60
2018-09-26T05:34:43.946Z,28.60
2018-09-26T05:37:13.420Z,28.50
2018-09-26T05:39:42.741Z,28.50
2018-09-26T05:42:12.033Z,28.50
2018-09-26T05:44:41.268Z,28.50
2018-09-26T05:47:10.552Z,28.50
2018-09-26T05:49:39.785Z,28.50
2018-09-26T05:52:09.092Z,28.50
2018-09-26T05:54:38.327Z,28.50
2018-09-26T05:57:07.701Z,28.50
2018-09-26T05:59:37.108Z,28.50
2018-09-26T06:02:06.428Z,28.50
2018-09-26T06:04:35.680Z,28.50
2018-09-26T06:07:05.031Z,28.50
2018-09-26T06:09:34.286Z,28.50
2018-09-26T06:12:03.636Z,28.50
2018-09-26T06:14:33.009Z,28.50
2018-09-26T06:17:02.320Z,28.50
2018-09-26T06:19:31.772Z,28.50
2018-09-26T06:22:03.676Z,28.50
2018-09-26T06:24:33.082Z,28.50
2018-09-26T06:27:02.385Z,28.50
2018-09-26T06:29:31.725Z,28.50
2018-09-26T06:32:01.164Z,28.50
2018-09-26T06:34:30.455Z,28.50
2018-09-26T06:36:59.725Z,28.50
2018-09-26T06:39:28.999Z,28.50
2018-09-26T06:41:58.341Z,28.50
2018-09-26T06:44:27.635Z,28.50
2018-09-26T06:46:56.972Z,28.50
2018-09-26T06:49:26.348Z,28.50
2018-09-26T06:51:55.735Z,28.50
2018-09-26T06:54:25.027Z,28.50
2018-09-26T06:56:54.482Z,28.50
2018-09-26T06:59:23.857Z,28.60
2018-09-26T07:01:53.239Z,28.60
2018-09-26T07:04:22.506Z,28.60
2018-09-26T07:06:51.845Z,28.60
2018-09-26T07:09:21.230Z,28.60
2018-09-26T07:11:50.525Z,28.60
2018-09-26T07:14:19.876Z,28.60
2018-09-26T07:16:49.297Z,28.70
2018-09-26T07:19:18.793Z,28.70
2018-09-26T07:21:48.654Z,28.70
2018-09-26T07:24:18.011Z,28.70
2018-09-26T07:26:48.056Z,28.70
2018-09-26T07:29:17.372Z,28.70
2018-09-26T07:31:46.770Z,28.70
2018-09-26T07:34:16.094Z,28.70
2018-09-26T07:36:45.429Z,28.70
2018-09-26T07:39:14.716Z,28.70
2018-09-26T07:41:44.017Z,28.80
2018-09-26T07:44:13.361Z,28.80
2018-09-26T07:46:42.796Z,28.80
2018-09-26T07:49:12.090Z,28.90
2018-09-26T07:51:44.598Z,28.90
2018-09-26T07:54:13.995Z,28.90
2018-09-26T07:56:43.358Z,28.90
2018-09-26T07:59:12.708Z,29.00
2018-09-26T08:01:42.035Z,29.00
2018-09-26T08:04:11.357Z,29.10
2018-09-26T08:06:40.696Z,29.10
2018-09-26T08:09:10.993Z,29.20
2018-09-26T08:11:40.463Z,29.20
2018-09-26T08:14:09.914Z,29.20
2018-09-26T08:16:39.269Z,29.30
2018-09-26T08:19:08.648Z,29.30
2018-09-26T08:21:38.001Z,29.40
2018-09-26T08:24:07.418Z,29.50
2018-09-26T08:26:36.679Z,29.50
2018-09-26T08:29:06.001Z,29.60
2018-09-26T08:31:35.344Z,29.70
2018-09-26T08:34:04.706Z,29.80
2018-09-26T08:36:33.948Z,29.90
2018-09-26T08:39:03.535Z,29.90
2018-09-26T08:41:32.898Z,29.90
2018-09-26T08:44:02.206Z,29.90
2018-09-26T08:46:31.528Z,29.90
2018-09-26T08:49:00.852Z,30.00
2018-09-26T08:51:30.181Z,30.00
2018-09-26T08:53:59.477Z,30.10
2018-09-26T08:56:28.783Z,30.10
2018-09-26T08:58:58.050Z,30.10
2018-09-26T09:01:32.326Z,30.20
2018-09-26T09:04:01.564Z,30.20
2018-09-26T09:06:30.855Z,30.10
2018-09-26T09:09:00.141Z,30.20
2018-09-26T09:11:29.429Z,30.10
2018-09-26T09:13:58.732Z,30.10
2018-09-26T09:16:27.965Z,30.10
2018-09-26T09:18:57.213Z,30.20
2018-09-26T09:21:26.508Z,30.30
2018-09-26T09:23:55.805Z,30.30
2018-09-26T09:26:25.187Z,30.50
2018-09-26T09:28:54.468Z,30.50
2018-09-26T09:31:23.801Z,30.50
2018-09-26T09:33:53.157Z,30.50
2018-09-26T09:36:22.477Z,30.60
2018-09-26T09:38:51.803Z,30.60
2018-09-26T09:41:21.032Z,30.70
2018-09-26T09:43:50.350Z,30.80
2018-09-26T09:46:19.621Z,30.90
2018-09-26T09:48:48.881Z,30.90
2018-09-26T09:51:18.182Z,31.00
2018-09-26T09:53:47.576Z,31.00
2018-09-26T09:56:16.910Z,31.00
2018-09-26T09:58:46.268Z,31.00
2018-09-26T10:01:20.586Z,31.10
2018-09-26T10:03:49.924Z,31.10
2018-09-26T10:06:19.260Z,31.10
2018-09-26T10:08:48.570Z,31.10
2018-09-26T10:11:17.931Z,31.00
2018-09-26T10:13:47.445Z,31.00
2018-09-26T10:16:16.797Z,31.00
2018-09-26T10:18:46.251Z,31.00
2018-09-26T10:21:15.580Z,31.10
2018-09-26T10:23:44.893Z,31.10
2018-09-26T10:26:14.153Z,31.20
2018-09-26T10:28:43.442Z,31.30
2018-09-26T10:31:12.774Z,31.30
2018-09-26T10:33:42.112Z,31.40
2018-09-26T10:36:11.397Z,31.40
2018-09-26T10:38:40.759Z,31.40
2018-09-26T10:41:10.042Z,31.40
2018-09-26T10:43:39.328Z,31.40
2018-09-26T10:46:09.061Z,31.40
2018-09-26T10:48:38.428Z,31.50
2018-09-26T10:51:07.782Z,31.60
2018-09-26T10:53:37.066Z,31.60
2018-09-26T10:56:06.415Z,31.60
2018-09-26T10:58:35.729Z,31.70
2018-09-26T11:01:05.013Z,31.80
2018-09-26T11:03:34.255Z,31.80
2018-09-26T11:06:03.522Z,31.80
2018-09-26T11:08:32.801Z,31.90
2018-09-26T11:11:02.133Z,32.00
2018-09-26T11:13:31.512Z,32.00
2018-09-26T11:16:00.769Z,32.10
2018-09-26T11:18:30.253Z,32.20
2018-09-26T11:20:59.546Z,32.20
2018-09-26T11:23:28.853Z,32.30
2018-09-26T11:25:58.181Z,32.40
2018-09-26T11:28:27.540Z,32.40
2018-09-26T11:30:56.796Z,32.40
2018-09-26T11:33:26.120Z,32.40
2018-09-26T11:35:55.513Z,32.30
2018-09-26T11:38:24.877Z,32.20
2018-09-26T11:40:54.198Z,32.20
2018-09-26T11:43:23.496Z,32.10
2018-09-26T11:45:52.837Z,32.10
2018-09-26T11:48:22.155Z,32.10
2018-09-26T11:50:51.489Z,32.00
2018-09-26T11:53:20.826Z,32.00
2018-09-26T11:55:50.250Z,32.10
2018-09-26T11:58:19.660Z,32.10
2018-09-26T12:00:48.924Z,32.10
2018-09-26T12:03:18.249Z,32.10
2018-09-26T12:05:47.554Z,32.10
2018-09-26T12:08:16.956Z,32.20
2018-09-26T12:10:46.202Z,32.20
2018-09-26T12:13:15.496Z,32.20
2018-09-26T12:15:44.776Z,32.20
2018-09-26T12:18:14.211Z,32.20
2018-09-26T12:20:43.683Z,32.30
2018-09-26T12:23:13.048Z,32.30
2018-09-26T12:25:42.393Z,32.30
2018-09-26T12:28:11.747Z,32.40
2018-09-26T12:30:41.165Z,32.40
2018-09-26T12:33:10.480Z,32.50
2018-09-26T12:35:39.889Z,32.50
2018-09-26T12:38:09.148Z,32.50
2018-09-26T12:40:38.528Z,32.50
2018-09-26T12:43:07.920Z,32.50
2018-09-26T12:45:37.448Z,32.50
2018-09-26T12:48:07.001Z,32.40
2018-09-26T12:50:36.283Z,32.40
2018-09-26T12:53:05.720Z,32.30
2018-09-26T12:55:35.369Z,32.30
2018-09-26T12:58:05.742Z,32.20
2018-09-26T13:00:35.155Z,32.20
2018-09-26T13:03:04.541Z,32.20
2018-09-26T13:05:33.809Z,32.20
2018-09-26T13:08:03.177Z,32.10
2018-09-26T13:10:32.461Z,32.10
2018-09-26T13:13:01.783Z,32.20
2018-09-26T13:15:31.117Z,32.20
2018-09-26T13:18:01.028Z,32.20
2018-09-26T13:20:30.365Z,32.10
2018-09-26T13:22:59.865Z,32.10
2018-09-26T13:25:29.329Z,32.10
2018-09-26T13:27:58.768Z,32.00
2018-09-26T13:30:28.292Z,32.00
2018-09-26T13:32:57.671Z,31.90
2018-09-26T13:35:27.113Z,31.90
2018-09-26T13:37:56.487Z,31.90
2018-09-26T13:40:26.043Z,31.80
2018-09-26T13:42:55.389Z,31.80
2018-09-26T13:45:24.773Z,31.70
2018-09-26T13:47:55.160Z,31.70
2018-09-26T13:50:24.586Z,31.70
2018-09-26T13:52:53.972Z,31.60
2018-09-26T13:55:23.416Z,31.60
2018-09-26T13:57:52.756Z,31.60
2018-09-26T14:00:22.273Z,31.60
2018-09-26T14:02:51.804Z,31.60
2018-09-26T14:05:21.681Z,31.60
2018-09-26T14:07:51.128Z,31.60
2018-09-26T14:10:20.568Z,31.50
2018-09-26T14:12:50.055Z,31.50
2018-09-26T14:15:23.050Z,31.50
2018-09-26T14:17:52.550Z,31.50
2018-09-26T14:20:23.178Z,31.50
2018-09-26T14:23:30.190Z,31.50
2018-09-26T14:26:02.949Z,31.50
2018-09-26T14:28:32.499Z,31.50
2018-09-26T14:31:02.185Z,31.60
2018-09-26T14:33:31.733Z,31.60
2018-09-26T14:36:01.407Z,31.60
2018-09-26T14:38:31.010Z,31.60
2018-09-26T14:41:00.755Z,31.60
2018-09-26T14:43:30.216Z,31.60
2018-09-26T14:45:59.843Z,31.50
2018-09-26T14:48:29.349Z,31.50
2018-09-26T14:50:58.752Z,31.40
2018-09-26T14:53:28.472Z,31.40
2018-09-26T14:55:58.155Z,31.40
2018-09-26T14:58:27.715Z,31.40
2018-09-26T15:00:57.237Z,31.40
2018-09-26T15:03:26.864Z,31.40
2018-09-26T15:05:56.540Z,31.30
2018-09-26T15:08:25.992Z,31.30
2018-09-26T15:10:55.512Z,31.20
2018-09-26T15:13:24.931Z,31.20
2018-09-26T15:15:54.399Z,31.20
2018-09-26T15:18:23.956Z,31.20
2018-09-26T15:20:53.376Z,31.20
2018-09-26T15:23:22.865Z,31.10
2018-09-26T15:25:52.386Z,31.10
2018-09-26T15:28:21.891Z,31.10
2018-09-26T15:30:51.621Z,31.00
2018-09-26T15:33:21.101Z,30.90
2018-09-26T15:35:50.512Z,30.90
2018-09-26T15:38:19.976Z,30.80
2018-09-26T15:40:49.408Z,30.70
2018-09-26T15:43:18.852Z,30.70
2018-09-26T15:45:48.282Z,30.70
2018-09-26T15:48:17.747Z,30.60
2018-09-26T15:50:47.162Z,30.70
2018-09-26T15:53:16.573Z,30.60
2018-09-26T15:55:46.052Z,30.60
2018-09-26T15:58:15.531Z,30.60
2018-09-26T16:00:44.993Z,30.60
2018-09-26T16:03:14.428Z,30.50
2018-09-26T16:05:43.808Z,30.50
2018-09-26T16:08:13.141Z,30.60
2018-09-26T16:10:42.539Z,30.50
2018-09-26T16:13:11.949Z,30.50
2018-09-26T16:15:41.402Z,30.60
2018-09-26T16:18:10.824Z,30.50
2018-09-26T16:20:40.231Z,30.50
2018-09-26T16:23:09.707Z,30.60
2018-09-26T16:25:39.185Z,30.50
2018-09-26T16:28:08.882Z,30.50
2018-09-26T16:30:38.267Z,30.60
2018-09-26T16:33:07.628Z,30.60
2018-09-26T16:35:37.092Z,30.60
2018-09-26T16:38:06.640Z,30.50
2018-09-26T16:40:36.008Z,30.60
2018-09-26T16:43:05.499Z,30.50
2018-09-26T16:45:34.952Z,30.50
2018-09-26T16:48:04.486Z,30.50
2018-09-26T16:50:33.894Z,30.40
2018-09-26T16:53:03.240Z,30.40
2018-09-26T16:55:32.673Z,30.40
2018-09-26T16:58:02.116Z,30.40
2018-09-26T17:00:31.537Z,30.40
2018-09-26T17:03:01.019Z,30.40
2018-09-26T17:05:30.468Z,30.40
2018-09-26T17:07:59.895Z,30.40
2018-09-26T17:10:29.269Z,30.50
2018-09-26T17:12:58.735Z,30.50
2018-09-26T17:15:28.235Z,30.50
2018-09-26T17:17:57.794Z,30.50
2018-09-26T17:20:27.320Z,30.40
2018-09-26T17:22:56.708Z,30.40
2018-09-26T17:25:26.089Z,30.40
2018-09-26T17:27:55.568Z,30.30
2018-09-26T17:30:25.090Z,30.30
2018-09-26T17:32:54.476Z,30.30
2018-09-26T17:35:23.864Z,30.30
2018-09-26T17:37:53.252Z,30.30
2018-09-26T17:40:22.673Z,30.20
2018-09-26T17:42:52.074Z,30.20
2018-09-26T17:45:21.570Z,30.20
2018-09-26T17:47:50.949Z,30.20
2018-09-26T17:50:20.367Z,30.10
2018-09-26T17:52:49.729Z,30.10
2018-09-26T17:55:19.095Z,30.10
2018-09-26T17:57:48.566Z,30.00
2018-09-26T18:00:18.039Z,30.00
2018-09-26T18:02:47.384Z,30.00
2018-09-26T18:05:16.755Z,30.00
2018-09-26T18:07:46.100Z,29.90
2018-09-26T18:10:15.585Z,29.90
2018-09-26T18:12:45.000Z,29.80
2018-09-26T18:15:14.421Z,29.90
2018-09-26T18:17:43.881Z,29.90
2018-09-26T18:20:13.353Z,29.80
2018-09-26T18:22:42.706Z,29.80
2018-09-26T18:25:12.170Z,29.80
2018-09-26T18:27:41.716Z,29.80
2018-09-26T18:30:11.244Z,29.80
2018-09-26T18:32:40.685Z,29.80
2018-09-26T18:35:10.144Z,29.80
2018-09-26T18:37:39.551Z,29.80
2018-09-26T18:40:08.950Z,29.80
2018-09-26T18:42:38.344Z,29.70
2018-09-26T18:45:08.050Z,29.80
2018-09-26T18:47:37.418Z,29.80
2018-09-26T18:50:06.885Z,29.80
2018-09-26T18:52:36.300Z,29.70
2018-09-26T18:55:05.768Z,29.70
2018-09-26T18:57:35.205Z,29.70
2018-09-26T19:00:04.738Z,29.70
2018-09-26T19:02:34.235Z,29.70
2018-09-26T19:05:03.750Z,29.60
2018-09-26T19:07:33.155Z,29.70
2018-09-26T19:10:02.672Z,29.70
2018-09-26T19:12:32.182Z,29.70
2018-09-26T19:15:01.595Z,29.60
2018-09-26T19:17:30.905Z,29.60
2018-09-26T19:20:00.392Z,29.60
2018-09-26T19:22:29.761Z,29.60
2018-09-26T19:24:59.098Z,29.60
2018-09-26T19:27:28.477Z,29.60
2018-09-26T19:29:58.037Z,29.60
2018-09-26T19:32:27.404Z,29.50
2018-09-26T19:34:56.805Z,29.60
2018-09-26T19:37:26.332Z,29.60
2018-09-26T19:39:59.639Z,29.60
2018-09-26T19:42:29.023Z,29.50
2018-09-26T19:44:58.767Z,29.60
2018-09-26T19:47:28.200Z,29.50
2018-09-26T19:49:57.613Z,29.50
2018-09-26T19:52:27.068Z,29.50
2018-09-26T19:54:56.488Z,29.50
2018-09-26T19:57:25.890Z,29.50
2018-09-26T19:59:55.321Z,29.50
2018-09-26T20:02:24.697Z,29.50
2018-09-26T20:04:54.084Z,29.50
2018-09-26T20:07:23.495Z,29.50
2018-09-26T20:09:52.930Z,29.50
2018-09-26T20:12:22.348Z,29.40
2018-09-26T20:14:51.734Z,29.50
2018-09-26T20:17:21.186Z,29.40
2018-09-26T20:19:50.602Z,29.50
2018-09-26T20:22:19.967Z,29.40
2018-09-26T20:24:49.395Z,29.40
2018-09-26T20:27:18.846Z,29.40
2018-09-26T20:29:48.458Z,29.50
2018-09-26T20:32:17.747Z,29.40
2018-09-26T20:34:47.156Z,29.40
2018-09-26T20:37:16.508Z,29.40
2018-09-26T20:39:45.916Z,29.40
2018-09-26T20:42:15.293Z,29.40
2018-09-26T20:44:44.630Z,29.40
2018-09-26T20:47:14.644Z,29.30
2018-09-26T20:49:44.108Z,29.30
2018-09-26T20:52:13.457Z,29.20
2018-09-26T20:54:42.940Z,29.20
2018-09-26T20:57:12.330Z,29.30
2018-09-26T20:59:41.777Z,29.30
2018-09-26T21:02:11.143Z,29.30
2018-09-26T21:04:40.533Z,29.30
2018-09-26T21:07:10.132Z,29.30
2018-09-26T21:09:39.596Z,29.30
2018-09-26T21:12:08.980Z,29.30
2018-09-26T21:14:38.427Z,29.30
2018-09-26T21:17:07.836Z,29.30
2018-09-26T21:19:37.260Z,29.30
2018-09-26T21:22:06.654Z,29.30
2018-09-26T21:24:36.057Z,29.20
2018-09-26T21:27:05.428Z,29.20
2018-09-26T21:29:35.527Z,29.20
2018-09-26T21:32:04.941Z,29.10
2018-09-26T21:34:34.305Z,29.10
2018-09-26T21:37:03.732Z,29.20
2018-09-26T21:39:33.277Z,29.20
2018-09-26T21:42:02.621Z,29.10
2018-09-26T21:44:32.024Z,29.10
2018-09-26T21:47:01.388Z,29.10
2018-09-26T21:49:30.779Z,29.20
2018-09-26T21:52:01.135Z,29.10
2018-09-26T21:54:30.578Z,29.10
2018-09-26T21:56:59.936Z,29.10
2018-09-26T21:59:29.399Z,29.10
2018-09-26T22:01:58.844Z,29.00
2018-09-26T22:04:28.226Z,29.00
2018-09-26T22:06:57.644Z,29.00
2018-09-26T22:09:26.982Z,29.00
2018-09-26T22:11:56.389Z,29.00
2018-09-26T22:14:25.917Z,29.00
2018-09-26T22:16:55.264Z,29.00
2018-09-26T22:19:24.652Z,29.00
2018-09-26T22:21:54.086Z,29.00
2018-09-26T22:24:23.471Z,29.00
2018-09-26T22:26:52.820Z,29.00
2018-09-26T22:29:22.341Z,29.00
2018-09-26T23:32:19.386Z,27.80
2018-09-26T23:34:48.775Z,28.30
2018-09-26T23:37:18.114Z,28.40
2018-09-26T23:39:47.536Z,28.40
2018-09-26T23:42:16.967Z,28.40
2018-09-26T23:44:46.308Z,28.40
2018-09-26T23:47:15.677Z,28.50
2018-09-26T23:49:44.995Z,28.50
2018-09-26T23:52:14.383Z,28.50
2018-09-26T23:54:43.919Z,28.50
2018-09-26T23:57:13.291Z,28.60
2018-09-26T23:59:42.633Z,28.60
